sensor_id;sensor_type;location;lat;lon;timestamp;temperature;humidity
23744;DHT22;12052;53.478;10.182;2023-09-18T00:01:04;18.70;99.90
23744;DHT22;12052;53.478;10.182;2023-09-18T00:03:31;18.70;99.90
23744;DHT22;12052;53.478;10.182;2023-09-18T00:05:56;18.70;99.90
23744;DHT22;12052;53.478;10.182;2023-09-18T00:08:22;18.60;99.90
23744;DHT22;12052;53.478;10.182;2023-09-18T00:10:53;18.60;99.90
23744;DHT22;12052;53.478;10.182;2023-09-18T00:13:19;18.50;99.90
23744;DHT22;12052;53.478;10.182;2023-09-18T00:15:45;18.60;99.90
23744;DHT22;12052;53.478;10.182;2023-09-18T00:18:15;18.60;99.90
23744;DHT22;12052;53.478;10.182;2023-09-18T00:20:41;18.50;99.90
23744;DHT22;12052;53.478;10.182;2023-09-18T00:23:07;18.50;99.90
23744;DHT22;12052;53.478;10.182;2023-09-18T00:25:33;18.50;99.90
23744;DHT22;12052;53.478;10.182;2023-09-18T00:27:59;18.50;99.90
23744;DHT22;12052;53.478;10.182;2023-09-18T00:30:24;18.50;99.90
23744;DHT22;12052;53.478;10.182;2023-09-18T00:32:50;18.40;99.90
23744;DHT22;12052;53.478;10.182;2023-09-18T00:35:16;18.40;99.90
23744;DHT22;12052;53.478;10.182;2023-09-18T00:37:41;18.40;99.90
23744;DHT22;12052;53.478;10.182;2023-09-18T00:40:08;18.30;99.90
23744;DHT22;12052;53.478;10.182;2023-09-18T00:42:34;18.30;99.90
23744;DHT22;12052;53.478;10.182;2023-09-18T00:45:00;18.30;99.90
23744;DHT22;12052;53.478;10.182;2023-09-18T00:47:26;18.30;99.90
23744;DHT22;12052;53.478;10.182;2023-09-18T00:49:52;18.20;99.90
23744;DHT22;12052;53.478;10.182;2023-09-18T00:52:19;18.20;99.90
23744;DHT22;12052;53.478;10.182;2023-09-18T00:54:46;18.10;99.90
23744;DHT22;12052;53.478;10.182;2023-09-18T00:57:12;18.20;99.90
23744;DHT22;12052;53.478;10.182;2023-09-18T00:59:38;18.10;99.90
23744;DHT22;12052;53.478;10.182;2023-09-18T01:02:04;18.10;99.90
23744;DHT22;12052;53.478;10.182;2023-09-18T01:04:30;18.10;99.90
23744;DHT22;12052;53.478;10.182;2023-09-18T01:06:58;18.10;99.90
23744;DHT22;12052;53.478;10.182;2023-09-18T01:09:24;18.10;99.90
23744;DHT22;12052;53.478;10.182;2023-09-18T01:17:00;18.00;99.90
23744;DHT22;12052;53.478;10.182;2023-09-18T01:22:10;18.00;99.90
23744;DHT22;12052;53.478;10.182;2023-09-18T01:24:37;18.00;99.90
23744;DHT22;12052;53.478;10.182;2023-09-18T01:27:04;17.90;99.90
23744;DHT22;12052;53.478;10.182;2023-09-18T01:29:30;17.90;99.90
23744;DHT22;12052;53.478;10.182;2023-09-18T01:31:56;18.00;99.90
23744;DHT22;12052;53.478;10.182;2023-09-18T01:34:26;17.90;99.90
23744;DHT22;12052;53.478;10.182;2023-09-18T01:36:55;17.90;99.90
23744;DHT22;12052;53.478;10.182;2023-09-18T01:39:22;17.90;99.90
23744;DHT22;12052;53.478;10.182;2023-09-18T01:41:48;17.90;99.90
23744;DHT22;12052;53.478;10.182;2023-09-18T01:44:13;17.80;99.90
23744;DHT22;12052;53.478;10.182;2023-09-18T01:46:39;17.80;99.90
23744;DHT22;12052;53.478;10.182;2023-09-18T01:49:06;17.80;99.90
23744;DHT22;12052;53.478;10.182;2023-09-18T01:51:31;17.80;99.90
23744;DHT22;12052;53.478;10.182;2023-09-18T01:53:57;17.80;99.90
23744;DHT22;12052;53.478;10.182;2023-09-18T01:56:23;17.80;99.90
23744;DHT22;12052;53.478;10.182;2023-09-18T01:58:49;17.70;99.90
23744;DHT22;12052;53.478;10.182;2023-09-18T02:01:15;17.70;99.90
23744;DHT22;12052;53.478;10.182;2023-09-18T02:03:40;17.70;99.90
23744;DHT22;12052;53.478;10.182;2023-09-18T02:06:10;17.70;99.90
23744;DHT22;12052;53.478;10.182;2023-09-18T02:08:35;17.70;99.90
23744;DHT22;12052;53.478;10.182;2023-09-18T02:11:01;17.70;99.90
23744;DHT22;12052;53.478;10.182;2023-09-18T02:13:28;17.70;99.90
23744;DHT22;12052;53.478;10.182;2023-09-18T02:15:54;17.70;99.90
23744;DHT22;12052;53.478;10.182;2023-09-18T02:18:20;17.70;99.90
23744;DHT22;12052;53.478;10.182;2023-09-18T02:20:46;17.70;99.90
23744;DHT22;12052;53.478;10.182;2023-09-18T02:23:17;17.70;99.90
23744;DHT22;12052;53.478;10.182;2023-09-18T02:25:44;17.70;99.90
23744;DHT22;12052;53.478;10.182;2023-09-18T02:28:09;17.70;99.90
23744;DHT22;12052;53.478;10.182;2023-09-18T02:30:35;17.60;99.90
23744;DHT22;12052;53.478;10.182;2023-09-18T02:33:00;17.70;99.90
23744;DHT22;12052;53.478;10.182;2023-09-18T02:35:29;17.60;99.90
23744;DHT22;12052;53.478;10.182;2023-09-18T02:37:55;17.60;99.90
23744;DHT22;12052;53.478;10.182;2023-09-18T02:40:20;17.60;99.90
23744;DHT22;12052;53.478;10.182;2023-09-18T02:42:46;17.60;99.90
23744;DHT22;12052;53.478;10.182;2023-09-18T02:45:11;17.50;99.90
23744;DHT22;12052;53.478;10.182;2023-09-18T02:47:37;17.50;99.90
23744;DHT22;12052;53.478;10.182;2023-09-18T02:50:06;17.50;99.90
23744;DHT22;12052;53.478;10.182;2023-09-18T02:52:32;17.50;99.90
23744;DHT22;12052;53.478;10.182;2023-09-18T02:54:58;17.50;99.90
23744;DHT22;12052;53.478;10.182;2023-09-18T02:57:23;17.50;99.90
23744;DHT22;12052;53.478;10.182;2023-09-18T02:59:49;17.50;99.90
23744;DHT22;12052;53.478;10.182;2023-09-18T03:02:15;17.50;99.90
23744;DHT22;12052;53.478;10.182;2023-09-18T03:04:40;17.50;99.90
23744;DHT22;12052;53.478;10.182;2023-09-18T03:07:06;17.50;99.90
23744;DHT22;12052;53.478;10.182;2023-09-18T03:09:31;17.50;99.90
23744;DHT22;12052;53.478;10.182;2023-09-18T03:11:57;17.50;99.90
23744;DHT22;12052;53.478;10.182;2023-09-18T03:14:22;17.50;99.90
23744;DHT22;12052;53.478;10.182;2023-09-18T03:16:48;17.50;99.90
23744;DHT22;12052;53.478;10.182;2023-09-18T03:19:13;17.50;99.90
23744;DHT22;12052;53.478;10.182;2023-09-18T03:21:39;17.50;99.90
23744;DHT22;12052;53.478;10.182;2023-09-18T03:24:05;17.50;99.90
23744;DHT22;12052;53.478;10.182;2023-09-18T03:26:31;17.50;99.90
23744;DHT22;12052;53.478;10.182;2023-09-18T03:28:56;17.50;99.90
23744;DHT22;12052;53.478;10.182;2023-09-18T03:31:22;17.50;99.90
23744;DHT22;12052;53.478;10.182;2023-09-18T03:33:47;17.50;99.90
23744;DHT22;12052;53.478;10.182;2023-09-18T03:36:13;17.50;99.90
23744;DHT22;12052;53.478;10.182;2023-09-18T03:38:40;17.40;99.90
23744;DHT22;12052;53.478;10.182;2023-09-18T03:41:05;17.40;99.90
23744;DHT22;12052;53.478;10.182;2023-09-18T03:43:31;17.40;99.90
23744;DHT22;12052;53.478;10.182;2023-09-18T03:46:06;17.40;99.90
23744;DHT22;12052;53.478;10.182;2023-09-18T03:48:32;17.40;99.90
23744;DHT22;12052;53.478;10.182;2023-09-18T03:51:03;17.30;99.90
23744;DHT22;12052;53.478;10.182;2023-09-18T03:53:29;17.30;99.90
23744;DHT22;12052;53.478;10.182;2023-09-18T03:55:55;17.30;99.90
23744;DHT22;12052;53.478;10.182;2023-09-18T03:58:21;17.30;99.90
23744;DHT22;12052;53.478;10.182;2023-09-18T04:00:46;17.40;99.90
23744;DHT22;12052;53.478;10.182;2023-09-18T04:03:12;17.30;99.90
23744;DHT22;12052;53.478;10.182;2023-09-18T04:05:38;17.30;99.90
23744;DHT22;12052;53.478;10.182;2023-09-18T04:08:03;17.30;99.90
23744;DHT22;12052;53.478;10.182;2023-09-18T04:10:29;17.30;99.90
23744;DHT22;12052;53.478;10.182;2023-09-18T04:12:55;17.40;99.90
23744;DHT22;12052;53.478;10.182;2023-09-18T04:15:20;17.40;99.90
23744;DHT22;12052;53.478;10.182;2023-09-18T04:17:48;17.40;99.90
23744;DHT22;12052;53.478;10.182;2023-09-18T04:20:14;17.40;99.90
23744;DHT22;12052;53.478;10.182;2023-09-18T04:22:43;17.40;99.90
23744;DHT22;12052;53.478;10.182;2023-09-18T04:25:10;17.40;99.90
23744;DHT22;12052;53.478;10.182;2023-09-18T04:27:36;17.40;99.90
23744;DHT22;12052;53.478;10.182;2023-09-18T04:30:01;17.40;99.90
23744;DHT22;12052;53.478;10.182;2023-09-18T04:32:30;17.40;99.90
23744;DHT22;12052;53.478;10.182;2023-09-18T04:34:56;17.40;99.90
23744;DHT22;12052;53.478;10.182;2023-09-18T04:37:21;17.40;99.90
23744;DHT22;12052;53.478;10.182;2023-09-18T04:39:47;17.30;99.90
23744;DHT22;12052;53.478;10.182;2023-09-18T04:42:13;17.30;99.90
23744;DHT22;12052;53.478;10.182;2023-09-18T04:44:38;17.30;99.90
23744;DHT22;12052;53.478;10.182;2023-09-18T04:47:04;17.30;99.90
23744;DHT22;12052;53.478;10.182;2023-09-18T04:49:29;17.30;99.90
23744;DHT22;12052;53.478;10.182;2023-09-18T04:51:55;17.30;99.90
23744;DHT22;12052;53.478;10.182;2023-09-18T04:54:21;17.30;99.90
23744;DHT22;12052;53.478;10.182;2023-09-18T04:56:46;17.30;99.90
23744;DHT22;12052;53.478;10.182;2023-09-18T04:59:12;17.30;99.90
23744;DHT22;12052;53.478;10.182;2023-09-18T05:01:38;17.20;99.90
23744;DHT22;12052;53.478;10.182;2023-09-18T05:04:03;17.20;99.90
23744;DHT22;12052;53.478;10.182;2023-09-18T05:06:29;17.20;99.90
23744;DHT22;12052;53.478;10.182;2023-09-18T05:08:54;17.20;99.90
23744;DHT22;12052;53.478;10.182;2023-09-18T05:11:21;17.20;99.90
23744;DHT22;12052;53.478;10.182;2023-09-18T05:13:47;17.20;99.90
23744;DHT22;12052;53.478;10.182;2023-09-18T05:16:12;17.20;99.90
23744;DHT22;12052;53.478;10.182;2023-09-18T05:18:38;17.20;99.90
23744;DHT22;12052;53.478;10.182;2023-09-18T05:21:04;17.20;99.90
23744;DHT22;12052;53.478;10.182;2023-09-18T05:23:30;17.20;99.90
23744;DHT22;12052;53.478;10.182;2023-09-18T05:25:56;17.30;99.90
23744;DHT22;12052;53.478;10.182;2023-09-18T05:28:22;17.30;99.90
23744;DHT22;12052;53.478;10.182;2023-09-18T05:30:47;17.30;99.90
23744;DHT22;12052;53.478;10.182;2023-09-18T05:33:13;17.40;99.90
23744;DHT22;12052;53.478;10.182;2023-09-18T05:35:44;17.50;99.90
23744;DHT22;12052;53.478;10.182;2023-09-18T05:38:11;17.40;99.90
23744;DHT22;12052;53.478;10.182;2023-09-18T05:40:39;17.50;99.90
23744;DHT22;12052;53.478;10.182;2023-09-18T05:43:04;17.50;99.90
23744;DHT22;12052;53.478;10.182;2023-09-18T05:45:30;17.60;99.90
23744;DHT22;12052;53.478;10.182;2023-09-18T05:47:58;17.60;99.90
23744;DHT22;12052;53.478;10.182;2023-09-18T05:50:27;17.60;99.90
23744;DHT22;12052;53.478;10.182;2023-09-18T05:52:54;17.70;99.90
23744;DHT22;12052;53.478;10.182;2023-09-18T05:55:24;17.70;99.90
23744;DHT22;12052;53.478;10.182;2023-09-18T05:57:50;17.70;99.90
23744;DHT22;12052;53.478;10.182;2023-09-18T06:00:16;17.80;99.90
23744;DHT22;12052;53.478;10.182;2023-09-18T06:02:43;17.90;99.90
23744;DHT22;12052;53.478;10.182;2023-09-18T06:05:09;18.10;99.90
23744;DHT22;12052;53.478;10.182;2023-09-18T06:07:36;18.20;99.90
23744;DHT22;12052;53.478;10.182;2023-09-18T06:10:02;18.30;99.90
23744;DHT22;12052;53.478;10.182;2023-09-18T06:12:28;18.40;99.90
23744;DHT22;12052;53.478;10.182;2023-09-18T06:14:54;18.50;99.90
23744;DHT22;12052;53.478;10.182;2023-09-18T06:17:20;18.60;99.90
23744;DHT22;12052;53.478;10.182;2023-09-18T06:19:45;18.70;99.90
23744;DHT22;12052;53.478;10.182;2023-09-18T06:22:11;18.70;99.90
23744;DHT22;12052;53.478;10.182;2023-09-18T06:24:37;18.70;99.90
23744;DHT22;12052;53.478;10.182;2023-09-18T06:27:03;18.80;99.90
23744;DHT22;12052;53.478;10.182;2023-09-18T06:29:35;18.80;99.90
23744;DHT22;12052;53.478;10.182;2023-09-18T06:32:03;18.70;99.90
23744;DHT22;12052;53.478;10.182;2023-09-18T06:34:29;18.80;99.90
23744;DHT22;12052;53.478;10.182;2023-09-18T06:36:54;18.80;99.90
23744;DHT22;12052;53.478;10.182;2023-09-18T06:39:20;18.80;99.90
23744;DHT22;12052;53.478;10.182;2023-09-18T06:41:47;18.80;99.90
23744;DHT22;12052;53.478;10.182;2023-09-18T06:44:13;18.90;99.90
23744;DHT22;12052;53.478;10.182;2023-09-18T06:46:39;18.90;99.90
23744;DHT22;12052;53.478;10.182;2023-09-18T06:49:05;18.90;99.90
23744;DHT22;12052;53.478;10.182;2023-09-18T06:51:30;18.90;99.90
23744;DHT22;12052;53.478;10.182;2023-09-18T06:53:56;18.90;99.90
23744;DHT22;12052;53.478;10.182;2023-09-18T06:56:28;18.90;99.90
23744;DHT22;12052;53.478;10.182;2023-09-18T06:58:53;19.00;99.90
23744;DHT22;12052;53.478;10.182;2023-09-18T07:01:20;19.00;99.90
23744;DHT22;12052;53.478;10.182;2023-09-18T07:03:47;19.00;99.90
23744;DHT22;12052;53.478;10.182;2023-09-18T07:06:14;19.10;99.90
23744;DHT22;12052;53.478;10.182;2023-09-18T07:08:44;19.10;99.90
23744;DHT22;12052;53.478;10.182;2023-09-18T07:11:10;19.30;99.90
23744;DHT22;12052;53.478;10.182;2023-09-18T07:13:37;19.30;99.90
23744;DHT22;12052;53.478;10.182;2023-09-18T07:16:03;19.40;99.90
23744;DHT22;12052;53.478;10.182;2023-09-18T07:18:29;19.50;99.90
23744;DHT22;12052;53.478;10.182;2023-09-18T07:20:54;19.60;99.90
23744;DHT22;12052;53.478;10.182;2023-09-18T07:23:20;19.60;99.90
23744;DHT22;12052;53.478;10.182;2023-09-18T07:25:48;19.70;99.90
23744;DHT22;12052;53.478;10.182;2023-09-18T07:28:13;19.80;99.90
23744;DHT22;12052;53.478;10.182;2023-09-18T07:30:43;19.90;99.90
23744;DHT22;12052;53.478;10.182;2023-09-18T07:33:09;20.00;99.90
23744;DHT22;12052;53.478;10.182;2023-09-18T07:35:35;20.10;99.90
23744;DHT22;12052;53.478;10.182;2023-09-18T07:38:01;20.10;99.90
23744;DHT22;12052;53.478;10.182;2023-09-18T07:40:26;20.20;99.90
23744;DHT22;12052;53.478;10.182;2023-09-18T07:42:52;20.40;99.90
23744;DHT22;12052;53.478;10.182;2023-09-18T07:45:18;20.40;99.90
23744;DHT22;12052;53.478;10.182;2023-09-18T07:47:44;20.40;99.90
23744;DHT22;12052;53.478;10.182;2023-09-18T07:50:09;20.40;99.90
23744;DHT22;12052;53.478;10.182;2023-09-18T07:52:35;20.50;99.90
23744;DHT22;12052;53.478;10.182;2023-09-18T07:55:01;20.50;99.90
23744;DHT22;12052;53.478;10.182;2023-09-18T07:57:27;20.50;99.90
23744;DHT22;12052;53.478;10.182;2023-09-18T07:59:58;20.60;99.90
23744;DHT22;12052;53.478;10.182;2023-09-18T08:02:24;20.60;99.90
23744;DHT22;12052;53.478;10.182;2023-09-18T08:04:50;20.60;99.90
23744;DHT22;12052;53.478;10.182;2023-09-18T08:07:18;20.70;99.90
23744;DHT22;12052;53.478;10.182;2023-09-18T08:09:44;20.80;99.90
23744;DHT22;12052;53.478;10.182;2023-09-18T08:12:10;20.70;99.90
23744;DHT22;12052;53.478;10.182;2023-09-18T08:14:35;20.80;99.90
23744;DHT22;12052;53.478;10.182;2023-09-18T08:17:02;20.80;99.90
23744;DHT22;12052;53.478;10.182;2023-09-18T08:19:30;20.80;99.90
23744;DHT22;12052;53.478;10.182;2023-09-18T08:21:57;20.80;99.90
23744;DHT22;12052;53.478;10.182;2023-09-18T08:24:23;20.80;99.90
23744;DHT22;12052;53.478;10.182;2023-09-18T08:26:49;20.80;99.90
23744;DHT22;12052;53.478;10.182;2023-09-18T08:29:15;20.70;99.90
23744;DHT22;12052;53.478;10.182;2023-09-18T08:31:41;20.70;99.90
23744;DHT22;12052;53.478;10.182;2023-09-18T08:34:06;20.70;99.90
23744;DHT22;12052;53.478;10.182;2023-09-18T08:36:32;20.70;99.90
23744;DHT22;12052;53.478;10.182;2023-09-18T08:38:58;20.60;99.90
23744;DHT22;12052;53.478;10.182;2023-09-18T08:41:24;20.60;99.90
23744;DHT22;12052;53.478;10.182;2023-09-18T08:44:01;20.60;99.90
23744;DHT22;12052;53.478;10.182;2023-09-18T08:46:29;20.60;99.90
23744;DHT22;12052;53.478;10.182;2023-09-18T08:48:55;20.50;99.90
23744;DHT22;12052;53.478;10.182;2023-09-18T08:51:23;20.60;99.90
23744;DHT22;12052;53.478;10.182;2023-09-18T08:53:48;20.60;99.90
23744;DHT22;12052;53.478;10.182;2023-09-18T08:56:15;20.70;99.90
23744;DHT22;12052;53.478;10.182;2023-09-18T08:58:43;20.70;99.90
23744;DHT22;12052;53.478;10.182;2023-09-18T09:01:09;20.80;99.90
23744;DHT22;12052;53.478;10.182;2023-09-18T09:03:37;20.90;99.90
23744;DHT22;12052;53.478;10.182;2023-09-18T09:06:04;20.90;99.90
23744;DHT22;12052;53.478;10.182;2023-09-18T09:08:30;21.00;99.90
23744;DHT22;12052;53.478;10.182;2023-09-18T09:10:55;21.00;99.90
23744;DHT22;12052;53.478;10.182;2023-09-18T09:13:23;21.00;99.90
23744;DHT22;12052;53.478;10.182;2023-09-18T09:15:53;21.10;99.90
23744;DHT22;12052;53.478;10.182;2023-09-18T09:18:22;21.10;99.90
23744;DHT22;12052;53.478;10.182;2023-09-18T09:21:01;21.20;99.90
23744;DHT22;12052;53.478;10.182;2023-09-18T09:23:30;21.30;99.90
23744;DHT22;12052;53.478;10.182;2023-09-18T09:26:14;21.40;99.90
23744;DHT22;12052;53.478;10.182;2023-09-18T09:28:39;21.40;99.90
23744;DHT22;12052;53.478;10.182;2023-09-18T09:31:08;21.50;99.90
23744;DHT22;12052;53.478;10.182;2023-09-18T09:33:34;21.60;99.90
23744;DHT22;12052;53.478;10.182;2023-09-18T09:35:59;21.60;99.90
23744;DHT22;12052;53.478;10.182;2023-09-18T09:38:29;21.60;99.90
23744;DHT22;12052;53.478;10.182;2023-09-18T09:41:00;21.60;99.90
23744;DHT22;12052;53.478;10.182;2023-09-18T09:43:27;21.60;99.90
23744;DHT22;12052;53.478;10.182;2023-09-18T09:46:00;21.60;99.90
23744;DHT22;12052;53.478;10.182;2023-09-18T09:48:26;21.60;99.90
23744;DHT22;12052;53.478;10.182;2023-09-18T09:50:52;21.60;99.90
23744;DHT22;12052;53.478;10.182;2023-09-18T09:53:46;21.60;99.90
23744;DHT22;12052;53.478;10.182;2023-09-18T09:56:14;21.60;99.90
23744;DHT22;12052;53.478;10.182;2023-09-18T09:58:40;21.60;99.90
23744;DHT22;12052;53.478;10.182;2023-09-18T10:01:11;21.70;99.90
23744;DHT22;12052;53.478;10.182;2023-09-18T10:03:43;21.80;99.90
23744;DHT22;12052;53.478;10.182;2023-09-18T10:06:09;21.80;99.90
23744;DHT22;12052;53.478;10.182;2023-09-18T10:08:38;21.80;99.90
23744;DHT22;12052;53.478;10.182;2023-09-18T10:11:09;21.90;99.90
23744;DHT22;12052;53.478;10.182;2023-09-18T10:16:13;21.80;99.90
23744;DHT22;12052;53.478;10.182;2023-09-18T10:24:28;21.90;99.90
23744;DHT22;12052;53.478;10.182;2023-09-18T10:27:01;21.80;99.90
23744;DHT22;12052;53.478;10.182;2023-09-18T10:29:35;21.80;99.90
23744;DHT22;12052;53.478;10.182;2023-09-18T10:32:03;21.80;99.90
23744;DHT22;12052;53.478;10.182;2023-09-18T10:34:33;21.90;99.90
23744;DHT22;12052;53.478;10.182;2023-09-18T10:37:01;22.00;99.90
23744;DHT22;12052;53.478;10.182;2023-09-18T10:39:31;22.10;99.90
23744;DHT22;12052;53.478;10.182;2023-09-18T10:42:01;22.10;99.90
23744;DHT22;12052;53.478;10.182;2023-09-18T10:44:28;22.30;99.90
23744;DHT22;12052;53.478;10.182;2023-09-18T10:46:54;22.40;99.90
23744;DHT22;12052;53.478;10.182;2023-09-18T10:49:21;22.50;99.90
23744;DHT22;12052;53.478;10.182;2023-09-18T10:51:48;22.50;99.90
23744;DHT22;12052;53.478;10.182;2023-09-18T10:54:20;22.50;99.90
23744;DHT22;12052;53.478;10.182;2023-09-18T10:56:47;22.50;99.90
23744;DHT22;12052;53.478;10.182;2023-09-18T10:59:14;22.60;99.90
23744;DHT22;12052;53.478;10.182;2023-09-18T11:01:41;22.60;99.90
23744;DHT22;12052;53.478;10.182;2023-09-18T11:04:08;22.50;99.90
23744;DHT22;12052;53.478;10.182;2023-09-18T11:09:23;22.60;99.90
23744;DHT22;12052;53.478;10.182;2023-09-18T11:14:22;22.60;99.90
23744;DHT22;12052;53.478;10.182;2023-09-18T11:16:49;22.60;99.90
23744;DHT22;12052;53.478;10.182;2023-09-18T11:19:18;22.70;99.90
23744;DHT22;12052;53.478;10.182;2023-09-18T11:21:45;22.70;99.90
23744;DHT22;12052;53.478;10.182;2023-09-18T11:24:21;22.70;99.90
23744;DHT22;12052;53.478;10.182;2023-09-18T11:26:50;22.80;99.90
23744;DHT22;12052;53.478;10.182;2023-09-18T11:29:21;23.00;99.90
23744;DHT22;12052;53.478;10.182;2023-09-18T11:34:27;23.10;99.90
23744;DHT22;12052;53.478;10.182;2023-09-18T11:37:23;23.00;99.90
23744;DHT22;12052;53.478;10.182;2023-09-18T11:39:51;23.10;99.90
23744;DHT22;12052;53.478;10.182;2023-09-18T11:42:20;23.00;99.90
23744;DHT22;12052;53.478;10.182;2023-09-18T11:44:52;23.00;99.90
23744;DHT22;12052;53.478;10.182;2023-09-18T11:47:24;23.00;99.90
23744;DHT22;12052;53.478;10.182;2023-09-18T11:49:54;23.00;99.90
23744;DHT22;12052;53.478;10.182;2023-09-18T11:52:26;23.00;99.90
23744;DHT22;12052;53.478;10.182;2023-09-18T11:54:53;23.10;99.90
23744;DHT22;12052;53.478;10.182;2023-09-18T11:57:20;23.30;99.90
23744;DHT22;12052;53.478;10.182;2023-09-18T11:59:46;23.40;99.90
23744;DHT22;12052;53.478;10.182;2023-09-18T12:02:32;23.50;99.90
23744;DHT22;12052;53.478;10.182;2023-09-18T12:05:14;23.50;99.90
23744;DHT22;12052;53.478;10.182;2023-09-18T12:07:43;23.40;99.90
23744;DHT22;12052;53.478;10.182;2023-09-18T12:10:14;23.40;99.90
23744;DHT22;12052;53.478;10.182;2023-09-18T12:12:41;23.40;99.90
23744;DHT22;12052;53.478;10.182;2023-09-18T12:15:10;23.30;99.90
23744;DHT22;12052;53.478;10.182;2023-09-18T12:17:36;23.40;99.90
23744;DHT22;12052;53.478;10.182;2023-09-18T12:20:01;23.40;99.90
23744;DHT22;12052;53.478;10.182;2023-09-18T12:22:30;23.40;99.90
23744;DHT22;12052;53.478;10.182;2023-09-18T12:25:13;23.50;99.90
23744;DHT22;12052;53.478;10.182;2023-09-18T12:27:40;23.50;99.90
23744;DHT22;12052;53.478;10.182;2023-09-18T12:30:06;23.60;99.90
23744;DHT22;12052;53.478;10.182;2023-09-18T12:32:35;23.60;99.90
23744;DHT22;12052;53.478;10.182;2023-09-18T12:35:02;23.60;99.90
23744;DHT22;12052;53.478;10.182;2023-09-18T12:37:32;23.80;99.90
23744;DHT22;12052;53.478;10.182;2023-09-18T12:39:58;23.80;99.90
23744;DHT22;12052;53.478;10.182;2023-09-18T12:42:24;23.90;99.90
23744;DHT22;12052;53.478;10.182;2023-09-18T12:44:49;23.80;99.90
23744;DHT22;12052;53.478;10.182;2023-09-18T12:47:16;23.70;99.90
23744;DHT22;12052;53.478;10.182;2023-09-18T12:49:42;23.70;99.90
23744;DHT22;12052;53.478;10.182;2023-09-18T12:52:07;23.60;99.90
23744;DHT22;12052;53.478;10.182;2023-09-18T12:54:44;23.70;99.90
23744;DHT22;12052;53.478;10.182;2023-09-18T12:57:15;23.70;99.90
23744;DHT22;12052;53.478;10.182;2023-09-18T12:59:40;23.80;99.90
23744;DHT22;12052;53.478;10.182;2023-09-18T13:02:06;23.80;99.90
23744;DHT22;12052;53.478;10.182;2023-09-18T13:04:34;23.80;99.90
23744;DHT22;12052;53.478;10.182;2023-09-18T13:07:12;23.80;99.90
23744;DHT22;12052;53.478;10.182;2023-09-18T13:09:38;23.80;99.90
23744;DHT22;12052;53.478;10.182;2023-09-18T13:12:04;23.90;99.90
23744;DHT22;12052;53.478;10.182;2023-09-18T13:15:00;24.10;99.90
23744;DHT22;12052;53.478;10.182;2023-09-18T13:17:37;24.20;99.90
23744;DHT22;12052;53.478;10.182;2023-09-18T13:20:16;24.30;99.90
23744;DHT22;12052;53.478;10.182;2023-09-18T13:22:48;24.20;99.90
23744;DHT22;12052;53.478;10.182;2023-09-18T13:25:22;24.00;99.90
23744;DHT22;12052;53.478;10.182;2023-09-18T13:27:49;23.90;99.90
23744;DHT22;12052;53.478;10.182;2023-09-18T13:30:15;23.80;99.90
23744;DHT22;12052;53.478;10.182;2023-09-18T13:32:46;23.80;99.90
23744;DHT22;12052;53.478;10.182;2023-09-18T13:35:14;23.70;99.90
23744;DHT22;12052;53.478;10.182;2023-09-18T13:37:40;23.60;99.90
23744;DHT22;12052;53.478;10.182;2023-09-18T13:40:07;23.50;99.90
23744;DHT22;12052;53.478;10.182;2023-09-18T13:42:37;23.50;99.90
23744;DHT22;12052;53.478;10.182;2023-09-18T13:45:04;23.50;99.90
23744;DHT22;12052;53.478;10.182;2023-09-18T13:47:32;23.50;99.90
23744;DHT22;12052;53.478;10.182;2023-09-18T13:49:59;23.50;99.90
23744;DHT22;12052;53.478;10.182;2023-09-18T13:52:26;23.50;99.90
23744;DHT22;12052;53.478;10.182;2023-09-18T13:54:52;23.50;99.90
23744;DHT22;12052;53.478;10.182;2023-09-18T13:57:18;23.50;99.90
23744;DHT22;12052;53.478;10.182;2023-09-18T13:59:45;23.50;99.90
23744;DHT22;12052;53.478;10.182;2023-09-18T14:02:12;23.50;99.90
23744;DHT22;12052;53.478;10.182;2023-09-18T14:04:37;23.40;99.90
23744;DHT22;12052;53.478;10.182;2023-09-18T14:07:07;23.40;99.90
23744;DHT22;12052;53.478;10.182;2023-09-18T14:09:32;23.30;99.90
23744;DHT22;12052;53.478;10.182;2023-09-18T14:11:58;23.30;99.90
23744;DHT22;12052;53.478;10.182;2023-09-18T14:14:23;23.20;99.90
23744;DHT22;12052;53.478;10.182;2023-09-18T14:16:49;23.20;99.90
23744;DHT22;12052;53.478;10.182;2023-09-18T14:19:19;23.10;99.90
23744;DHT22;12052;53.478;10.182;2023-09-18T14:21:44;23.10;99.90
23744;DHT22;12052;53.478;10.182;2023-09-18T14:24:10;23.10;99.90
23744;DHT22;12052;53.478;10.182;2023-09-18T14:26:35;23.10;99.90
23744;DHT22;12052;53.478;10.182;2023-09-18T14:29:10;23.10;99.90
23744;DHT22;12052;53.478;10.182;2023-09-18T14:31:36;23.10;99.90
23744;DHT22;12052;53.478;10.182;2023-09-18T14:34:03;23.10;99.90
23744;DHT22;12052;53.478;10.182;2023-09-18T14:36:29;23.20;99.90
23744;DHT22;12052;53.478;10.182;2023-09-18T14:38:55;23.30;99.90
23744;DHT22;12052;53.478;10.182;2023-09-18T14:41:23;23.40;99.90
23744;DHT22;12052;53.478;10.182;2023-09-18T14:43:50;23.50;99.90
23744;DHT22;12052;53.478;10.182;2023-09-18T14:46:15;23.70;99.90
23744;DHT22;12052;53.478;10.182;2023-09-18T14:48:41;23.80;99.90
23744;DHT22;12052;53.478;10.182;2023-09-18T14:51:06;23.70;99.90
23744;DHT22;12052;53.478;10.182;2023-09-18T14:53:32;23.70;99.90
23744;DHT22;12052;53.478;10.182;2023-09-18T14:56:00;23.60;99.90
23744;DHT22;12052;53.478;10.182;2023-09-18T14:58:26;23.40;99.90
23744;DHT22;12052;53.478;10.182;2023-09-18T15:00:53;23.40;99.90
23744;DHT22;12052;53.478;10.182;2023-09-18T15:03:18;23.30;99.90
23744;DHT22;12052;53.478;10.182;2023-09-18T15:05:44;23.30;99.90
23744;DHT22;12052;53.478;10.182;2023-09-18T15:08:10;23.40;99.90
23744;DHT22;12052;53.478;10.182;2023-09-18T15:10:36;23.30;99.90
23744;DHT22;12052;53.478;10.182;2023-09-18T15:13:02;23.30;99.90
23744;DHT22;12052;53.478;10.182;2023-09-18T15:15:28;23.30;99.90
23744;DHT22;12052;53.478;10.182;2023-09-18T15:17:54;23.20;99.90
23744;DHT22;12052;53.478;10.182;2023-09-18T15:20:20;23.20;99.90
23744;DHT22;12052;53.478;10.182;2023-09-18T15:22:49;23.30;99.90
23744;DHT22;12052;53.478;10.182;2023-09-18T15:25:15;23.30;99.90
23744;DHT22;12052;53.478;10.182;2023-09-18T15:27:42;23.30;99.90
23744;DHT22;12052;53.478;10.182;2023-09-18T15:30:10;23.30;99.90
23744;DHT22;12052;53.478;10.182;2023-09-18T15:32:47;23.30;99.90
23744;DHT22;12052;53.478;10.182;2023-09-18T15:35:16;23.30;99.90
23744;DHT22;12052;53.478;10.182;2023-09-18T15:37:42;23.30;99.90
23744;DHT22;12052;53.478;10.182;2023-09-18T15:40:08;23.30;99.90